sensor_id;sensor_type;location;lat;lon;timestamp;temperature;humidity
2212;DHT22;48849;48.758;9.158;2023-03-01T00:00:54;3.90;99.90
2212;DHT22;48849;48.758;9.158;2023-03-01T00:03:20;3.90;99.90
2212;DHT22;48849;48.758;9.158;2023-03-01T00:05:47;3.80;99.90
2212;DHT22;48849;48.758;9.158;2023-03-01T00:08:15;3.80;99.90
2212;DHT22;48849;48.758;9.158;2023-03-01T00:10:42;3.80;99.90
2212;DHT22;48849;48.758;9.158;2023-03-01T00:13:08;3.80;99.90
2212;DHT22;48849;48.758;9.158;2023-03-01T00:15:38;3.70;99.90
2212;DHT22;48849;48.758;9.158;2023-03-01T00:18:05;3.70;99.90
2212;DHT22;48849;48.758;9.158;2023-03-01T00:20:32;3.70;99.90
2212;DHT22;48849;48.758;9.158;2023-03-01T00:22:58;3.70;99.90
2212;DHT22;48849;48.758;9.158;2023-03-01T00:25:26;3.70;99.90
2212;DHT22;48849;48.758;9.158;2023-03-01T00:27:53;3.70;99.90
2212;DHT22;48849;48.758;9.158;2023-03-01T00:30:20;3.70;99.90
2212;DHT22;48849;48.758;9.158;2023-03-01T00:32:46;3.70;99.90
2212;DHT22;48849;48.758;9.158;2023-03-01T00:35:13;3.70;99.90
2212;DHT22;48849;48.758;9.158;2023-03-01T00:37:40;3.60;99.90
2212;DHT22;48849;48.758;9.158;2023-03-01T00:40:08;3.70;99.90
2212;DHT22;48849;48.758;9.158;2023-03-01T00:42:37;3.70;99.90
2212;DHT22;48849;48.758;9.158;2023-03-01T00:45:04;3.60;99.90
2212;DHT22;48849;48.758;9.158;2023-03-01T00:47:33;3.60;99.90
2212;DHT22;48849;48.758;9.158;2023-03-01T00:49:59;3.60;99.90
2212;DHT22;48849;48.758;9.158;2023-03-01T00:52:26;3.60;99.90
2212;DHT22;48849;48.758;9.158;2023-03-01T00:54:53;3.60;99.90
2212;DHT22;48849;48.758;9.158;2023-03-01T00:57:20;3.60;99.90
2212;DHT22;48849;48.758;9.158;2023-03-01T00:59:48;3.60;99.90
2212;DHT22;48849;48.758;9.158;2023-03-01T01:02:15;3.60;99.90
2212;DHT22;48849;48.758;9.158;2023-03-01T01:04:41;3.60;99.90
2212;DHT22;48849;48.758;9.158;2023-03-01T01:07:08;3.60;99.90
2212;DHT22;48849;48.758;9.158;2023-03-01T01:09:35;3.50;99.90
2212;DHT22;48849;48.758;9.158;2023-03-01T01:12:02;3.50;99.90
2212;DHT22;48849;48.758;9.158;2023-03-01T01:14:29;3.50;99.90
2212;DHT22;48849;48.758;9.158;2023-03-01T01:16:57;3.50;99.90
2212;DHT22;48849;48.758;9.158;2023-03-01T01:19:25;3.50;99.90
2212;DHT22;48849;48.758;9.158;2023-03-01T01:21:52;3.50;99.90
2212;DHT22;48849;48.758;9.158;2023-03-01T01:24:19;3.40;99.90
2212;DHT22;48849;48.758;9.158;2023-03-01T01:26:46;3.40;99.90
2212;DHT22;48849;48.758;9.158;2023-03-01T01:29:13;3.40;99.90
2212;DHT22;48849;48.758;9.158;2023-03-01T01:31:41;3.40;99.90
2212;DHT22;48849;48.758;9.158;2023-03-01T01:34:18;3.40;99.90
2212;DHT22;48849;48.758;9.158;2023-03-01T01:36:48;3.40;99.90
2212;DHT22;48849;48.758;9.158;2023-03-01T01:39:15;3.30;99.90
2212;DHT22;48849;48.758;9.158;2023-03-01T01:41:42;3.30;99.90
2212;DHT22;48849;48.758;9.158;2023-03-01T01:44:12;3.40;99.90
2212;DHT22;48849;48.758;9.158;2023-03-01T01:46:41;3.30;99.90
2212;DHT22;48849;48.758;9.158;2023-03-01T01:49:20;3.30;99.90
2212;DHT22;48849;48.758;9.158;2023-03-01T01:51:51;3.30;99.90
2212;DHT22;48849;48.758;9.158;2023-03-01T01:54:24;3.30;99.90
2212;DHT22;48849;48.758;9.158;2023-03-01T01:56:54;3.30;99.90
2212;DHT22;48849;48.758;9.158;2023-03-01T01:59:23;3.30;99.90
2212;DHT22;48849;48.758;9.158;2023-03-01T02:01:51;3.30;99.90
2212;DHT22;48849;48.758;9.158;2023-03-01T02:04:19;3.30;99.90
2212;DHT22;48849;48.758;9.158;2023-03-01T02:06:49;3.30;99.90
2212;DHT22;48849;48.758;9.158;2023-03-01T02:09:18;3.30;99.90
2212;DHT22;48849;48.758;9.158;2023-03-01T02:11:47;3.30;99.90
2212;DHT22;48849;48.758;9.158;2023-03-01T02:14:14;3.30;99.90
2212;DHT22;48849;48.758;9.158;2023-03-01T02:16:42;3.30;99.90
2212;DHT22;48849;48.758;9.158;2023-03-01T02:19:13;3.40;99.90
2212;DHT22;48849;48.758;9.158;2023-03-01T02:21:51;3.40;99.90
2212;DHT22;48849;48.758;9.158;2023-03-01T02:24:26;3.40;99.90
2212;DHT22;48849;48.758;9.158;2023-03-01T02:26:57;3.40;99.90
2212;DHT22;48849;48.758;9.158;2023-03-01T02:29:27;3.50;99.90
2212;DHT22;48849;48.758;9.158;2023-03-01T02:31:56;3.50;99.90
2212;DHT22;48849;48.758;9.158;2023-03-01T02:34:25;3.50;99.90
2212;DHT22;48849;48.758;9.158;2023-03-01T02:36:55;3.50;99.90
2212;DHT22;48849;48.758;9.158;2023-03-01T02:39:26;3.50;99.90
2212;DHT22;48849;48.758;9.158;2023-03-01T02:41:54;3.50;99.90
2212;DHT22;48849;48.758;9.158;2023-03-01T02:44:25;3.60;99.90
2212;DHT22;48849;48.758;9.158;2023-03-01T02:46:53;3.60;99.90
2212;DHT22;48849;48.758;9.158;2023-03-01T02:49:24;3.70;99.90
2212;DHT22;48849;48.758;9.158;2023-03-01T02:52:01;3.70;99.90
2212;DHT22;48849;48.758;9.158;2023-03-01T02:54:36;3.70;99.90
2212;DHT22;48849;48.758;9.158;2023-03-01T02:57:03;3.80;99.90
2212;DHT22;48849;48.758;9.158;2023-03-01T02:59:33;3.80;99.90
2212;DHT22;48849;48.758;9.158;2023-03-01T03:02:04;3.80;99.90
2212;DHT22;48849;48.758;9.158;2023-03-01T03:04:31;3.80;99.90
2212;DHT22;48849;48.758;9.158;2023-03-01T03:06:58;3.90;99.90
2212;DHT22;48849;48.758;9.158;2023-03-01T03:09:25;3.90;99.90
2212;DHT22;48849;48.758;9.158;2023-03-01T03:11:51;4.00;99.90
2212;DHT22;48849;48.758;9.158;2023-03-01T03:14:19;4.00;99.90
2212;DHT22;48849;48.758;9.158;2023-03-01T03:16:48;4.00;99.90
2212;DHT22;48849;48.758;9.158;2023-03-01T03:19:16;4.00;99.90
2212;DHT22;48849;48.758;9.158;2023-03-01T03:21:43;4.00;99.90
2212;DHT22;48849;48.758;9.158;2023-03-01T03:24:09;4.10;99.90
2212;DHT22;48849;48.758;9.158;2023-03-01T03:26:36;4.10;99.90
2212;DHT22;48849;48.758;9.158;2023-03-01T03:29:03;4.10;99.90
2212;DHT22;48849;48.758;9.158;2023-03-01T03:31:30;4.10;99.90
2212;DHT22;48849;48.758;9.158;2023-03-01T03:33:58;4.20;99.90
2212;DHT22;48849;48.758;9.158;2023-03-01T03:36:25;4.10;99.90
2212;DHT22;48849;48.758;9.158;2023-03-01T03:38:52;4.20;99.90
2212;DHT22;48849;48.758;9.158;2023-03-01T03:41:18;4.20;99.90
2212;DHT22;48849;48.758;9.158;2023-03-01T03:43:45;4.20;99.90
2212;DHT22;48849;48.758;9.158;2023-03-01T03:46:12;4.20;99.90
2212;DHT22;48849;48.758;9.158;2023-03-01T03:48:41;4.20;99.90
2212;DHT22;48849;48.758;9.158;2023-03-01T03:51:12;4.20;99.90
2212;DHT22;48849;48.758;9.158;2023-03-01T03:53:39;4.20;99.90
2212;DHT22;48849;48.758;9.158;2023-03-01T03:56:06;4.20;99.90
2212;DHT22;48849;48.758;9.158;2023-03-01T03:58:34;4.20;99.90
2212;DHT22;48849;48.758;9.158;2023-03-01T04:01:01;4.20;99.90
2212;DHT22;48849;48.758;9.158;2023-03-01T04:03:29;4.30;99.90
2212;DHT22;48849;48.758;9.158;2023-03-01T04:05:57;4.20;99.90
2212;DHT22;48849;48.758;9.158;2023-03-01T04:08:26;4.20;99.90
2212;DHT22;48849;48.758;9.158;2023-03-01T04:10:58;4.30;99.90
2212;DHT22;48849;48.758;9.158;2023-03-01T04:13:25;4.30;99.90
2212;DHT22;48849;48.758;9.158;2023-03-01T04:15:53;4.30;99.90
2212;DHT22;48849;48.758;9.158;2023-03-01T04:18:23;4.20;99.90
2212;DHT22;48849;48.758;9.158;2023-03-01T04:20:51;4.40;99.90
2212;DHT22;48849;48.758;9.158;2023-03-01T04:23:21;4.30;99.90
2212;DHT22;48849;48.758;9.158;2023-03-01T04:25:50;4.30;99.90
2212;DHT22;48849;48.758;9.158;2023-03-01T04:28:19;4.40;99.90
2212;DHT22;48849;48.758;9.158;2023-03-01T04:30:47;4.40;99.90
2212;DHT22;48849;48.758;9.158;2023-03-01T04:33:14;4.40;99.90
2212;DHT22;48849;48.758;9.158;2023-03-01T04:35:41;4.30;99.90
2212;DHT22;48849;48.758;9.158;2023-03-01T04:38:08;4.30;99.90
2212;DHT22;48849;48.758;9.158;2023-03-01T04:40:36;4.40;99.90
2212;DHT22;48849;48.758;9.158;2023-03-01T04:43:04;4.40;99.90
2212;DHT22;48849;48.758;9.158;2023-03-01T04:45:32;4.40;99.90
2212;DHT22;48849;48.758;9.158;2023-03-01T04:48:00;4.40;99.90
2212;DHT22;48849;48.758;9.158;2023-03-01T04:50:27;4.40;99.90
2212;DHT22;48849;48.758;9.158;2023-03-01T04:52:53;4.40;99.90
2212;DHT22;48849;48.758;9.158;2023-03-01T04:55:24;4.40;99.90
2212;DHT22;48849;48.758;9.158;2023-03-01T04:57:51;4.40;99.90
2212;DHT22;48849;48.758;9.158;2023-03-01T05:00:20;4.40;99.90
2212;DHT22;48849;48.758;9.158;2023-03-01T05:02:49;4.40;99.90
2212;DHT22;48849;48.758;9.158;2023-03-01T05:05:22;4.40;99.90
2212;DHT22;48849;48.758;9.158;2023-03-01T05:07:51;4.40;99.90
2212;DHT22;48849;48.758;9.158;2023-03-01T05:10:18;4.40;99.90
2212;DHT22;48849;48.758;9.158;2023-03-01T05:12:47;4.40;99.90
2212;DHT22;48849;48.758;9.158;2023-03-01T05:15:14;4.40;99.90
2212;DHT22;48849;48.758;9.158;2023-03-01T05:17:42;4.40;99.90
2212;DHT22;48849;48.758;9.158;2023-03-01T05:20:10;4.40;99.90
2212;DHT22;48849;48.758;9.158;2023-03-01T05:22:36;4.40;99.90
2212;DHT22;48849;48.758;9.158;2023-03-01T05:25:04;4.40;99.90
2212;DHT22;48849;48.758;9.158;2023-03-01T05:27:31;4.40;99.90
2212;DHT22;48849;48.758;9.158;2023-03-01T05:29:57;4.40;99.90
2212;DHT22;48849;48.758;9.158;2023-03-01T05:32:24;4.40;99.90
2212;DHT22;48849;48.758;9.158;2023-03-01T05:34:52;4.40;99.90
2212;DHT22;48849;48.758;9.158;2023-03-01T05:37:20;4.40;99.90
2212;DHT22;48849;48.758;9.158;2023-03-01T05:39:47;4.50;99.90
2212;DHT22;48849;48.758;9.158;2023-03-01T05:42:15;4.50;99.90
2212;DHT22;48849;48.758;9.158;2023-03-01T05:44:42;4.50;99.90
2212;DHT22;48849;48.758;9.158;2023-03-01T05:47:09;4.50;99.90
2212;DHT22;48849;48.758;9.158;2023-03-01T05:49:36;4.50;99.90
2212;DHT22;48849;48.758;9.158;2023-03-01T05:52:04;4.50;99.90
2212;DHT22;48849;48.758;9.158;2023-03-01T05:54:31;4.50;99.90
2212;DHT22;48849;48.758;9.158;2023-03-01T05:56:58;4.50;99.90
2212;DHT22;48849;48.758;9.158;2023-03-01T05:59:25;4.50;99.90
2212;DHT22;48849;48.758;9.158;2023-03-01T06:01:51;4.40;99.90
2212;DHT22;48849;48.758;9.158;2023-03-01T06:04:18;4.50;99.90
2212;DHT22;48849;48.758;9.158;2023-03-01T06:06:46;4.50;99.90
2212;DHT22;48849;48.758;9.158;2023-03-01T06:09:14;4.50;99.90
2212;DHT22;48849;48.758;9.158;2023-03-01T06:11:41;4.50;99.90
2212;DHT22;48849;48.758;9.158;2023-03-01T06:14:07;4.50;99.90
2212;DHT22;48849;48.758;9.158;2023-03-01T06:16:35;4.50;99.90
2212;DHT22;48849;48.758;9.158;2023-03-01T06:19:02;4.50;99.90
2212;DHT22;48849;48.758;9.158;2023-03-01T06:21:29;4.60;99.90
2212;DHT22;48849;48.758;9.158;2023-03-01T06:23:55;4.60;99.90
2212;DHT22;48849;48.758;9.158;2023-03-01T06:26:23;4.60;99.90
2212;DHT22;48849;48.758;9.158;2023-03-01T06:28:50;4.60;99.90
2212;DHT22;48849;48.758;9.158;2023-03-01T06:31:17;4.60;99.90
2212;DHT22;48849;48.758;9.158;2023-03-01T06:33:43;4.70;99.90
2212;DHT22;48849;48.758;9.158;2023-03-01T06:36:11;4.70;99.90
2212;DHT22;48849;48.758;9.158;2023-03-01T06:38:37;4.70;99.90
2212;DHT22;48849;48.758;9.158;2023-03-01T06:41:06;4.70;99.90
2212;DHT22;48849;48.758;9.158;2023-03-01T06:43:34;4.70;99.90
2212;DHT22;48849;48.758;9.158;2023-03-01T06:46:04;4.70;99.90
2212;DHT22;48849;48.758;9.158;2023-03-01T06:48:32;4.70;99.90
2212;DHT22;48849;48.758;9.158;2023-03-01T06:50:59;4.70;99.90
2212;DHT22;48849;48.758;9.158;2023-03-01T06:53:26;4.70;99.90
2212;DHT22;48849;48.758;9.158;2023-03-01T06:55:54;4.70;99.90
2212;DHT22;48849;48.758;9.158;2023-03-01T06:58:21;4.80;99.90
2212;DHT22;48849;48.758;9.158;2023-03-01T07:00:49;4.80;99.90
2212;DHT22;48849;48.758;9.158;2023-03-01T07:03:15;4.80;99.90
2212;DHT22;48849;48.758;9.158;2023-03-01T07:05:42;4.80;99.90
2212;DHT22;48849;48.758;9.158;2023-03-01T07:08:09;4.80;99.90
2212;DHT22;48849;48.758;9.158;2023-03-01T07:10:36;4.80;99.90
2212;DHT22;48849;48.758;9.158;2023-03-01T07:13:03;4.80;99.90
2212;DHT22;48849;48.758;9.158;2023-03-01T07:15:32;4.80;99.90
2212;DHT22;48849;48.758;9.158;2023-03-01T07:18:00;4.90;99.90
2212;DHT22;48849;48.758;9.158;2023-03-01T07:20:27;4.80;99.90
2212;DHT22;48849;48.758;9.158;2023-03-01T07:22:55;4.80;99.90
2212;DHT22;48849;48.758;9.158;2023-03-01T07:25:23;4.80;99.90
2212;DHT22;48849;48.758;9.158;2023-03-01T07:27:51;4.80;99.90
2212;DHT22;48849;48.758;9.158;2023-03-01T07:30:18;4.80;99.90
2212;DHT22;48849;48.758;9.158;2023-03-01T07:32:45;4.80;99.90
2212;DHT22;48849;48.758;9.158;2023-03-01T07:35:13;4.90;99.90
2212;DHT22;48849;48.758;9.158;2023-03-01T07:37:40;4.90;99.90
2212;DHT22;48849;48.758;9.158;2023-03-01T07:40:08;4.90;99.90
2212;DHT22;48849;48.758;9.158;2023-03-01T07:42:35;4.90;99.90
2212;DHT22;48849;48.758;9.158;2023-03-01T07:45:02;4.90;99.90
2212;DHT22;48849;48.758;9.158;2023-03-01T07:47:29;4.90;99.90
2212;DHT22;48849;48.758;9.158;2023-03-01T07:52:24;5.00;99.90
2212;DHT22;48849;48.758;9.158;2023-03-01T07:54:51;5.10;99.90
2212;DHT22;48849;48.758;9.158;2023-03-01T07:57:17;5.00;99.90
2212;DHT22;48849;48.758;9.158;2023-03-01T07:59:44;5.10;99.90
2212;DHT22;48849;48.758;9.158;2023-03-01T08:02:11;5.10;99.90
2212;DHT22;48849;48.758;9.158;2023-03-01T08:04:38;5.10;99.90
2212;DHT22;48849;48.758;9.158;2023-03-01T08:07:05;5.00;99.90
2212;DHT22;48849;48.758;9.158;2023-03-01T08:09:34;5.00;99.90
2212;DHT22;48849;48.758;9.158;2023-03-01T08:12:01;5.00;99.90
2212;DHT22;48849;48.758;9.158;2023-03-01T08:14:28;5.00;99.90
2212;DHT22;48849;48.758;9.158;2023-03-01T08:16:55;5.00;99.90
2212;DHT22;48849;48.758;9.158;2023-03-01T08:19:22;5.00;99.90
2212;DHT22;48849;48.758;9.158;2023-03-01T08:21:48;5.00;99.90
2212;DHT22;48849;48.758;9.158;2023-03-01T08:24:15;5.00;99.90
2212;DHT22;48849;48.758;9.158;2023-03-01T08:26:43;5.00;99.90
2212;DHT22;48849;48.758;9.158;2023-03-01T08:29:10;5.00;99.90
2212;DHT22;48849;48.758;9.158;2023-03-01T08:31:39;4.90;99.90
2212;DHT22;48849;48.758;9.158;2023-03-01T08:34:08;5.00;99.90
2212;DHT22;48849;48.758;9.158;2023-03-01T08:36:37;5.10;99.90
2212;DHT22;48849;48.758;9.158;2023-03-01T08:39:05;5.10;99.90
2212;DHT22;48849;48.758;9.158;2023-03-01T08:41:32;5.10;99.90
2212;DHT22;48849;48.758;9.158;2023-03-01T08:44:00;5.10;99.90
2212;DHT22;48849;48.758;9.158;2023-03-01T08:46:27;5.10;99.90
2212;DHT22;48849;48.758;9.158;2023-03-01T08:48:55;5.20;99.90
2212;DHT22;48849;48.758;9.158;2023-03-01T08:51:22;5.20;99.90
2212;DHT22;48849;48.758;9.158;2023-03-01T08:53:49;5.20;99.90
2212;DHT22;48849;48.758;9.158;2023-03-01T08:56:17;5.20;99.90
2212;DHT22;48849;48.758;9.158;2023-03-01T08:58:45;5.20;99.90
2212;DHT22;48849;48.758;9.158;2023-03-01T09:01:14;5.20;99.90
2212;DHT22;48849;48.758;9.158;2023-03-01T09:03:42;5.20;99.90
2212;DHT22;48849;48.758;9.158;2023-03-01T09:06:10;5.30;99.90
2212;DHT22;48849;48.758;9.158;2023-03-01T09:08:38;5.30;99.90
2212;DHT22;48849;48.758;9.158;2023-03-01T09:11:06;5.30;99.90
2212;DHT22;48849;48.758;9.158;2023-03-01T09:13:33;5.30;99.90
2212;DHT22;48849;48.758;9.158;2023-03-01T09:16:02;5.40;99.90
2212;DHT22;48849;48.758;9.158;2023-03-01T09:18:30;5.40;99.90
2212;DHT22;48849;48.758;9.158;2023-03-01T09:21:01;5.40;99.90
2212;DHT22;48849;48.758;9.158;2023-03-01T09:23:32;5.40;99.90
2212;DHT22;48849;48.758;9.158;2023-03-01T09:25:59;5.50;99.90
2212;DHT22;48849;48.758;9.158;2023-03-01T09:28:26;5.50;99.90
2212;DHT22;48849;48.758;9.158;2023-03-01T09:30:53;5.50;99.90
2212;DHT22;48849;48.758;9.158;2023-03-01T09:35:56;5.60;99.90
2212;DHT22;48849;48.758;9.158;2023-03-01T09:38:23;8.10;99.90
2212;DHT22;48849;48.758;9.158;2023-03-01T09:40:49;5.60;99.90
2212;DHT22;48849;48.758;9.158;2023-03-01T09:43:23;8.10;99.90
2212;DHT22;48849;48.758;9.158;2023-03-01T09:45:53;5.70;99.90
2212;DHT22;48849;48.758;9.158;2023-03-01T09:48:25;5.70;99.90
2212;DHT22;48849;48.758;9.158;2023-03-01T09:50:54;5.80;99.90
2212;DHT22;48849;48.758;9.158;2023-03-01T09:53:31;5.90;99.90
2212;DHT22;48849;48.758;9.158;2023-03-01T09:56:10;5.90;99.90
2212;DHT22;48849;48.758;9.158;2023-03-01T09:58:46;5.90;99.90
2212;DHT22;48849;48.758;9.158;2023-03-01T10:01:35;6.00;99.90
2212;DHT22;48849;48.758;9.158;2023-03-01T10:04:25;6.00;99.90
2212;DHT22;48849;48.758;9.158;2023-03-01T10:07:05;6.10;99.90
2212;DHT22;48849;48.758;9.158;2023-03-01T10:09:38;6.10;99.90
2212;DHT22;48849;48.758;9.158;2023-03-01T10:12:10;6.10;99.90
2212;DHT22;48849;48.758;9.158;2023-03-01T10:14:40;6.10;99.90
2212;DHT22;48849;48.758;9.158;2023-03-01T10:17:20;6.40;99.90
2212;DHT22;48849;48.758;9.158;2023-03-01T10:19:50;6.30;99.90
2212;DHT22;48849;48.758;9.158;2023-03-01T10:22:21;6.30;99.90
2212;DHT22;48849;48.758;9.158;2023-03-01T10:24:50;6.40;99.90
2212;DHT22;48849;48.758;9.158;2023-03-01T10:27:21;6.50;99.90
2212;DHT22;48849;48.758;9.158;2023-03-01T10:29:54;6.60;99.90
2212;DHT22;48849;48.758;9.158;2023-03-01T10:32:23;6.70;99.90
2212;DHT22;48849;48.758;9.158;2023-03-01T10:34:49;6.70;99.90
2212;DHT22;48849;48.758;9.158;2023-03-01T10:37:20;6.70;99.90
2212;DHT22;48849;48.758;9.158;2023-03-01T10:39:57;6.70;99.90
2212;DHT22;48849;48.758;9.158;2023-03-01T10:42:28;6.80;99.90
2212;DHT22;48849;48.758;9.158;2023-03-01T10:44:55;6.80;99.90
2212;DHT22;48849;48.758;9.158;2023-03-01T10:47:24;6.80;99.90
2212;DHT22;48849;48.758;9.158;2023-03-01T10:50:02;6.80;99.90
2212;DHT22;48849;48.758;9.158;2023-03-01T10:52:33;6.80;99.90
2212;DHT22;48849;48.758;9.158;2023-03-01T10:55:03;6.90;99.90
2212;DHT22;48849;48.758;9.158;2023-03-01T10:57:36;6.90;99.90
2212;DHT22;48849;48.758;9.158;2023-03-01T11:00:24;6.90;99.90
2212;DHT22;48849;48.758;9.158;2023-03-01T11:03:03;7.00;99.90
2212;DHT22;48849;48.758;9.158;2023-03-01T11:05:30;7.00;99.90
2212;DHT22;48849;48.758;9.158;2023-03-01T11:08:02;7.10;99.90
2212;DHT22;48849;48.758;9.158;2023-03-01T11:10:31;7.10;99.90
2212;DHT22;48849;48.758;9.158;2023-03-01T11:13:13;7.10;99.90
2212;DHT22;48849;48.758;9.158;2023-03-01T11:15:41;7.20;99.90
2212;DHT22;48849;48.758;9.158;2023-03-01T11:18:19;7.20;99.90
2212;DHT22;48849;48.758;9.158;2023-03-01T11:23:15;7.30;99.90
2212;DHT22;48849;48.758;9.158;2023-03-01T11:25:46;7.40;99.90
2212;DHT22;48849;48.758;9.158;2023-03-01T11:28:16;7.40;99.90
2212;DHT22;48849;48.758;9.158;2023-03-01T11:30:50;7.60;99.90
2212;DHT22;48849;48.758;9.158;2023-03-01T11:33:28;9.20;99.90
2212;DHT22;48849;48.758;9.158;2023-03-01T11:36:03;7.80;99.90
2212;DHT22;48849;48.758;9.158;2023-03-01T11:38:35;7.90;99.90
2212;DHT22;48849;48.758;9.158;2023-03-01T11:41:06;8.10;99.90
2212;DHT22;48849;48.758;9.158;2023-03-01T11:43:47;8.20;99.90
2212;DHT22;48849;48.758;9.158;2023-03-01T11:46:36;8.40;99.90
2212;DHT22;48849;48.758;9.158;2023-03-01T11:49:23;8.60;99.90
2212;DHT22;48849;48.758;9.158;2023-03-01T11:52:02;8.80;99.90
2212;DHT22;48849;48.758;9.158;2023-03-01T11:54:45;8.90;99.90
2212;DHT22;48849;48.758;9.158;2023-03-01T11:57:23;9.10;99.90
2212;DHT22;48849;48.758;9.158;2023-03-01T12:00:06;9.30;99.90
2212;DHT22;48849;48.758;9.158;2023-03-01T12:06:12;9.60;99.90
2212;DHT22;48849;48.758;9.158;2023-03-01T12:08:58;9.80;99.90
2212;DHT22;48849;48.758;9.158;2023-03-01T12:14:32;10.50;99.90
2212;DHT22;48849;48.758;9.158;2023-03-01T12:17:18;10.80;99.90
2212;DHT22;48849;48.758;9.158;2023-03-01T12:20:11;11.10;99.90
2212;DHT22;48849;48.758;9.158;2023-03-01T12:22:52;11.10;99.90
2212;DHT22;48849;48.758;9.158;2023-03-01T12:25:32;11.00;99.90
2212;DHT22;48849;48.758;9.158;2023-03-01T12:28:16;10.90;99.90
2212;DHT22;48849;48.758;9.158;2023-03-01T12:30:58;10.70;99.90
2212;DHT22;48849;48.758;9.158;2023-03-01T12:33:30;10.60;99.90
2212;DHT22;48849;48.758;9.158;2023-03-01T12:36:21;10.40;99.90
2212;DHT22;48849;48.758;9.158;2023-03-01T12:38:58;10.30;99.90
2212;DHT22;48849;48.758;9.158;2023-03-01T12:41:43;10.20;99.90
2212;DHT22;48849;48.758;9.158;2023-03-01T12:44:31;10.00;99.90
2212;DHT22;48849;48.758;9.158;2023-03-01T12:47:14;9.80;99.90
2212;DHT22;48849;48.758;9.158;2023-03-01T12:49:46;9.70;99.90
2212;DHT22;48849;48.758;9.158;2023-03-01T12:52:18;9.60;99.90
2212;DHT22;48849;48.758;9.158;2023-03-01T12:54:50;9.50;99.90
2212;DHT22;48849;48.758;9.158;2023-03-01T12:57:23;9.40;99.90
2212;DHT22;48849;48.758;9.158;2023-03-01T13:00:06;9.30;99.90
2212;DHT22;48849;48.758;9.158;2023-03-01T13:02:38;9.30;99.90
2212;DHT22;48849;48.758;9.158;2023-03-01T13:05:20;9.20;99.90
2212;DHT22;48849;48.758;9.158;2023-03-01T13:07:56;9.10;99.90
2212;DHT22;48849;48.758;9.158;2023-03-01T13:10:28;9.10;99.90
2212;DHT22;48849;48.758;9.158;2023-03-01T13:13:08;9.10;99.90
2212;DHT22;48849;48.758;9.158;2023-03-01T13:15:40;9.10;99.90
2212;DHT22;48849;48.758;9.158;2023-03-01T13:18:28;9.10;99.90
2212;DHT22;48849;48.758;9.158;2023-03-01T13:20:56;9.10;99.90
2212;DHT22;48849;48.758;9.158;2023-03-01T13:23:26;9.10;99.90
2212;DHT22;48849;48.758;9.158;2023-03-01T13:26:17;9.10;99.90
2212;DHT22;48849;48.758;9.158;2023-03-01T13:28:55;9.20;99.90
2212;DHT22;48849;48.758;9.158;2023-03-01T13:34:43;9.10;99.90
2212;DHT22;48849;48.758;9.158;2023-03-01T13:37:10;9.20;99.90
2212;DHT22;48849;48.758;9.158;2023-03-01T13:39:44;9.10;99.90
2212;DHT22;48849;48.758;9.158;2023-03-01T13:42:35;9.10;99.90
2212;DHT22;48849;48.758;9.158;2023-03-01T13:45:12;9.10;99.90
2212;DHT22;48849;48.758;9.158;2023-03-01T13:47:42;9.10;99.90
2212;DHT22;48849;48.758;9.158;2023-03-01T13:50:18;9.00;99.90
2212;DHT22;48849;48.758;9.158;2023-03-01T13:52:49;9.10;99.90
2212;DHT22;48849;48.758;9.158;2023-03-01T13:55:20;9.00;99.90
2212;DHT22;48849;48.758;9.158;2023-03-01T13:57:50;9.00;99.90
2212;DHT22;48849;48.758;9.158;2023-03-01T14:00:27;9.00;99.90
2212;DHT22;48849;48.758;9.158;2023-03-01T14:03:05;9.00;99.90
2212;DHT22;48849;48.758;9.158;2023-03-01T14:05:37;8.90;99.90
2212;DHT22;48849;48.758;9.158;2023-03-01T14:08:05;8.90;99.90
2212;DHT22;48849;48.758;9.158;2023-03-01T14:10:41;8.90;99.90
2212;DHT22;48849;48.758;9.158;2023-03-01T14:13:23;8.90;99.90
2212;DHT22;48849;48.758;9.158;2023-03-01T14:16:04;8.90;99.90
2212;DHT22;48849;48.758;9.158;2023-03-01T14:18:39;8.90;99.90
2212;DHT22;48849;48.758;9.158;2023-03-01T14:21:14;8.90;99.90
2212;DHT22;48849;48.758;9.158;2023-03-01T14:23:41;8.90;99.90
2212;DHT22;48849;48.758;9.158;2023-03-01T14:26:09;8.90;99.90
2212;DHT22;48849;48.758;9.158;2023-03-01T14:28:38;8.90;99.90
2212;DHT22;48849;48.758;9.158;2023-03-01T14:31:31;8.80;99.90
2212;DHT22;48849;48.758;9.158;2023-03-01T14:33:59;8.80;99.90
2212;DHT22;48849;48.758;9.158;2023-03-01T14:36:29;8.80;99.90
2212;DHT22;48849;48.758;9.158;2023-03-01T14:38:56;8.80;99.90
2212;DHT22;48849;48.758;9.158;2023-03-01T14:41:31;8.70;99.90
2212;DHT22;48849;48.758;9.158;2023-03-01T14:44:01;8.70;99.90
2212;DHT22;48849;48.758;9.158;2023-03-01T14:46:32;8.70;99.90
2212;DHT22;48849;48.758;9.158;2023-03-01T14:49:02;8.70;99.90
2212;DHT22;48849;48.758;9.158;2023-03-01T14:51:35;8.70;99.90
2212;DHT22;48849;48.758;9.158;2023-03-01T14:54:02;8.70;99.90
2212;DHT22;48849;48.758;9.158;2023-03-01T14:56:43;8.70;99.90
2212;DHT22;48849;48.758;9.158;2023-03-01T14:59:11;8.70;99.90
2212;DHT22;48849;48.758;9.158;2023-03-01T15:01:38;8.70;99.90
2212;DHT22;48849;48.758;9.158;2023-03-01T15:04:06;8.70;99.90
2212;DHT22;48849;48.758;9.158;2023-03-01T15:06:34;8.70;99.90
2212;DHT22;48849;48.758;9.158;2023-03-01T15:09:01;8.70;99.90
2212;DHT22;48849;48.758;9.158;2023-03-01T15:11:29;8.90;99.90
2212;DHT22;48849;48.758;9.158;2023-03-01T15:13:56;8.70;99.90
2212;DHT22;48849;48.758;9.158;2023-03-01T15:16:25;8.70;99.90
2212;DHT22;48849;48.758;9.158;2023-03-01T15:18:54;8.70;99.90
2212;DHT22;48849;48.758;9.158;2023-03-01T15:21:23;8.70;99.90
2212;DHT22;48849;48.758;9.158;2023-03-01T15:23:56;8.70;99.90
2212;DHT22;48849;48.758;9.158;2023-03-01T15:26:29;8.70;99.90
2212;DHT22;48849;48.758;9.158;2023-03-01T15:28:58;8.70;99.90
2212;DHT22;48849;48.758;9.158;2023-03-01T15:31:27;8.70;99.90
2212;DHT22;48849;48.758;9.158;2023-03-01T15:34:09;8.70;99.90
2212;DHT22;48849;48.758;9.158;2023-03-01T15:36:40;8.70;99.90
2212;DHT22;48849;48.758;9.158;2023-03-01T15:39:27;8.70;99.90
2212;DHT22;48849;48.758;9.158;2023-03-01T15:41:55;8.60;99.90
2212;DHT22;48849;48.758;9.158;2023-03-01T15:44:27;8.60;99.90
2212;DHT22;48849;48.758;9.158;2023-03-01T15:46:54;8.60;99.90
2212;DHT22;48849;48.758;9.158;2023-03-01T15:49:35;8.60;99.90
2212;DHT22;48849;48.758;9.158;2023-03-01T15:52:03;8.60;99.90
2212;DHT22;48849;48.758;9.158;2023-03-01T15:54:31;8.60;99.90
2212;DHT22;48849;48.758;9.158;2023-03-01T15:56:58;8.60;99.90
2212;DHT22;48849;48.758;9.158;2023-03-01T15:59:24;8.60;99.90
2212;DHT22;48849;48.758;9.158;2023-03-01T16:01:51;8.60;99.90
2212;DHT22;48849;48.758;9.158;2023-03-01T16:04:19;8.60;99.90
2212;DHT22;48849;48.758;9.158;2023-03-01T16:06:49;8.60;99.90
2212;DHT22;48849;48.758;9.158;2023-03-01T16:09:20;8.60;99.90
2212;DHT22;48849;48.758;9.158;2023-03-01T16:11:49;8.50;99.90
2212;DHT22;48849;48.758;9.158;2023-03-01T16:14:16;8.60;99.90
2212;DHT22;48849;48.758;9.158;2023-03-01T16:16:44;8.60;99.90
2212;DHT22;48849;48.758;9.158;2023-03-01T16:19:11;8.60;99.90
2212;DHT22;48849;48.758;9.158;2023-03-01T16:21:38;8.60;99.90
2212;DHT22;48849;48.758;9.158;2023-03-01T16:24:05;8.60;99.90
2212;DHT22;48849;48.758;9.158;2023-03-01T16:26:32;8.50;99.90
2212;DHT22;48849;48.758;9.158;2023-03-01T16:29:00;8.50;99.90
2212;DHT22;48849;48.758;9.158;2023-03-01T16:31:27;8.50;99.90
2212;DHT22;48849;48.758;9.158;2023-03-01T16:33:54;8.50;99.90
2212;DHT22;48849;48.758;9.158;2023-03-01T16:36:23;8.50;99.90
2212;DHT22;48849;48.758;9.158;2023-03-01T16:38:51;8.50;99.90